Time;durP1;ratioP1;P1;durP2;ratioP2;P2;SDS_P1;SDS_P2;PMS_P1;PMS_P2;Temp;Humidity;BMP_temperature;BMP_pressure;BME280_temperature;BME280_humidity;BME280_pressure;Samples;Min_cycle;Max_cycle;Signal;HPM_P1;HPM_P2
2023/09/03 00:00:38;;;;;;;13.60;9.43;;;18.90;99.90;;;;;;6272210;22;20027;-72
2023/09/03 00:03:24;;;;;;;13.10;8.18;;;18.90;99.90;;;;;;6271118;22;20012;-71
2023/09/03 00:06:10;;;;;;;13.20;8.20;;;18.90;99.90;;;;;;6250755;22;20012;-70
2023/09/03 00:08:56;;;;;;;15.35;10.05;;;18.90;99.90;;;;;;6272697;22;20456;-70
2023/09/03 00:11:42;;;;;;;15.48;9.18;;;18.90;99.90;;;;;;6271094;22;20090;-70
2023/09/03 00:14:28;;;;;;;13.25;8.52;;;19.00;99.90;;;;;;6272607;22;20011;-70
2023/09/03 00:17:14;;;;;;;11.02;8.40;;;19.00;99.90;;;;;;6271079;22;20042;-71
2023/09/03 00:20:00;;;;;;;12.98;8.60;;;19.00;99.90;;;;;;6272669;22;20019;-71
2023/09/03 00:22:46;;;;;;;16.15;8.40;;;19.10;99.90;;;;;;6271462;22;20348;-70
2023/09/03 00:25:36;;;;;;;12.02;8.48;;;19.10;99.90;;;;;;6271716;22;20019;-70
2023/09/03 00:28:23;;;;;;;12.48;8.02;;;19.10;99.90;;;;;;6273917;22;20018;-70
2023/09/03 00:31:09;;;;;;;10.43;6.65;;;19.10;99.90;;;;;;6271266;22;20043;-69
2023/09/03 00:33:55;;;;;;;13.68;8.40;;;19.10;99.90;;;;;;6272347;22;20003;-69
2023/09/03 00:36:41;;;;;;;12.02;8.35;;;19.20;99.90;;;;;;6270752;22;20460;-69
2023/09/03 00:39:27;;;;;;;10.80;7.82;;;19.20;99.90;;;;;;6271872;22;20027;-70
2023/09/03 00:42:13;;;;;;;12.13;7.78;;;19.10;99.90;;;;;;6271944;22;20432;-71
2023/09/03 00:44:59;;;;;;;11.10;7.07;;;19.20;99.90;;;;;;6271903;22;20094;-70
2023/09/03 00:47:47;;;;;;;10.65;7.72;;;19.20;99.90;;;;;;6270364;22;20007;-69
2023/09/03 00:50:33;;;;;;;11.60;7.85;;;19.10;99.90;;;;;;6270681;22;20008;-71
2023/09/03 00:53:20;;;;;;;14.23;9.07;;;19.20;99.90;;;;;;6272204;22;20069;-69
2023/09/03 00:56:08;;;;;;;12.40;7.20;;;19.20;99.90;;;;;;6270680;22;20011;-69
2023/09/03 00:58:55;;;;;;;12.38;7.80;;;19.20;99.90;;;;;;6271400;22;20457;-70
2023/09/03 01:01:42;;;;;;;13.55;7.65;;;19.20;99.90;;;;;;6270915;22;20358;-70
2023/09/03 01:04:27;;;;;;;12.32;8.20;;;19.20;99.90;;;;;;6271036;22;20004;-70
2023/09/03 01:07:16;;;;;;;14.05;9.05;;;19.20;99.90;;;;;;6270560;22;20012;-69
2023/09/03 01:10:02;;;;;;;11.50;8.00;;;19.20;99.90;;;;;;6270477;22;20043;-68
2023/09/03 01:13:24;;;;;;;12.15;7.93;;;19.20;99.90;;;;;;6270554;22;20073;-68
2023/09/03 01:16:25;;;;;;;11.02;7.50;;;19.20;99.90;;;;;;6268556;22;20517;-68
2023/09/03 01:19:47;;;;;;;9.90;6.55;;;19.20;99.90;;;;;;6270243;22;20038;-70
2023/09/03 01:23:09;;;;;;;10.90;6.88;;;19.20;99.90;;;;;;6272212;22;20004;-70
2023/09/03 01:26:09;;;;;;;11.73;7.20;;;19.20;99.90;;;;;;6272817;22;20007;-70
2023/09/03 01:28:58;;;;;;;10.73;7.30;;;19.20;99.90;;;;;;6277877;22;20030;-70
2023/09/03 01:31:44;;;;;;;10.88;6.85;;;19.10;99.90;;;;;;6271095;22;20446;-70
2023/09/03 01:34:32;;;;;;;12.80;7.50;;;19.10;99.90;;;;;;6270581;22;20028;-69
2023/09/03 01:37:18;;;;;;;10.85;8.63;;;19.10;99.90;;;;;;6248323;22;20015;-70
2023/09/03 01:40:05;;;;;;;12.88;7.57;;;19.10;99.90;;;;;;6271192;22;20034;-69
2023/09/03 01:42:51;;;;;;;12.00;7.40;;;19.10;99.90;;;;;;6270497;22;20337;-70
2023/09/03 01:45:51;;;;;;;11.23;7.35;;;19.10;99.90;;;;;;6250198;22;20437;-70
2023/09/03 01:49:02;;;;;;;10.98;7.00;;;19.10;99.90;;;;;;6270805;22;20425;-69
2023/09/03 01:52:11;;;;;;;9.05;6.35;;;19.10;99.90;;;;;;6272107;22;20008;-69
2023/09/03 01:54:59;;;;;;;9.75;6.68;;;19.10;99.90;;;;;;6270656;22;20015;-69
2023/09/03 01:57:53;;;;;;;9.70;6.88;;;19.10;99.90;;;;;;6269997;22;20007;-68
2023/09/03 02:00:41;;;;;;;9.15;6.72;;;19.10;99.90;;;;;;6269677;22;20326;-68
2023/09/03 02:03:28;;;;;;;7.88;6.35;;;19.00;99.90;;;;;;6269408;22;20019;-69
2023/09/03 02:06:14;;;;;;;9.25;7.03;;;19.00;99.90;;;;;;6269839;22;20012;-69
2023/09/03 02:09:00;;;;;;;8.90;6.22;;;19.00;99.90;;;;;;6250684;22;20020;-69
2023/09/03 02:11:46;;;;;;;8.73;6.90;;;19.00;99.90;;;;;;6250030;22;20468;-69
2023/09/03 02:14:32;;;;;;;9.40;6.80;;;18.90;99.90;;;;;;6271184;22;20012;-70
2023/09/03 02:17:21;;;;;;;10.38;7.15;;;18.90;99.90;;;;;;6269839;22;20065;-70
2023/09/03 02:20:07;;;;;;;9.45;6.72;;;18.90;99.90;;;;;;6269619;22;20027;-70
2023/09/03 02:22:53;;;;;;;8.88;6.80;;;18.90;99.90;;;;;;6269909;22;20180;-70
2023/09/03 02:25:40;;;;;;;10.13;6.47;;;18.80;99.90;;;;;;6271216;22;20491;-71
2023/09/03 02:28:26;;;;;;;9.50;6.88;;;18.80;99.90;;;;;;6268768;22;20096;-71
2023/09/03 02:31:12;;;;;;;8.82;6.65;;;18.80;99.90;;;;;;6269267;22;20083;-71
2023/09/03 02:33:58;;;;;;;10.77;6.00;;;18.70;99.90;;;;;;6267623;22;20004;-71
2023/09/03 02:36:44;;;;;;;10.35;7.10;;;18.70;99.90;;;;;;6270964;22;20047;-71
2023/09/03 02:39:30;;;;;;;9.93;6.95;;;18.70;99.90;;;;;;6271235;22;20111;-71
2023/09/03 02:42:16;;;;;;;9.38;6.97;;;18.70;99.90;;;;;;6267571;22;20489;-71
2023/09/03 02:45:02;;;;;;;12.60;7.55;;;18.60;99.90;;;;;;6267557;22;20061;-71
2023/09/03 02:47:48;;;;;;;8.55;6.97;;;18.60;99.90;;;;;;6269628;22;20074;-70
2023/09/03 02:50:37;;;;;;;8.48;6.45;;;18.50;99.90;;;;;;6271152;22;20090;-70
2023/09/03 02:53:23;;;;;;;9.15;6.40;;;18.50;99.90;;;;;;6247494;22;20066;-70
2023/09/03 02:56:09;;;;;;;7.63;6.50;;;18.50;99.90;;;;;;6270605;22;20008;-71
2023/09/03 02:58:55;;;;;;;10.40;6.63;;;18.50;99.90;;;;;;6270289;22;20012;-71
2023/09/03 03:01:42;;;;;;;8.27;6.78;;;18.40;99.90;;;;;;6270694;22;20118;-71
2023/09/03 03:04:28;;;;;;;10.07;6.78;;;18.50;99.90;;;;;;6271085;22;20396;-71
2023/09/03 03:07:14;;;;;;;11.07;6.30;;;18.40;99.90;;;;;;6270807;22;20494;-71
2023/09/03 03:10:00;;;;;;;8.15;5.90;;;18.40;99.90;;;;;;6272412;22;20015;-71
2023/09/03 03:12:46;;;;;;;8.48;6.07;;;18.40;99.90;;;;;;6272740;22;20015;-71
2023/09/03 03:15:34;;;;;;;8.48;5.47;;;18.30;99.90;;;;;;6272397;22;20015;-70
2023/09/03 03:18:20;;;;;;;7.32;5.45;;;18.30;99.90;;;;;;6271528;22;20014;-71
2023/09/03 03:21:07;;;;;;;8.93;5.93;;;18.30;99.90;;;;;;6273177;22;20035;-71
2023/09/03 03:23:53;;;;;;;8.50;5.40;;;18.30;99.90;;;;;;6270808;22;20012;-71
2023/09/03 03:26:39;;;;;;;7.85;5.50;;;18.30;99.90;;;;;;6272520;22;20012;-71
2023/09/03 03:29:25;;;;;;;7.47;6.18;;;18.30;99.90;;;;;;6271791;22;20012;-70
2023/09/03 03:32:11;;;;;;;7.50;5.50;;;18.30;99.90;;;;;;6272025;22;20008;-71
2023/09/03 03:34:57;;;;;;;6.72;5.50;;;18.20;99.90;;;;;;6270262;22;20046;-70
2023/09/03 03:37:42;;;;;;;8.13;5.13;;;18.20;99.90;;;;;;6273310;22;20050;-71
2023/09/03 03:40:28;;;;;;;8.85;5.45;;;18.20;99.90;;;;;;6271508;22;20030;-71
2023/09/03 03:43:14;;;;;;;6.85;4.95;;;18.20;99.90;;;;;;6270571;22;20008;-70
2023/09/03 03:46:00;;;;;;;6.95;5.35;;;18.20;99.90;;;;;;6251225;22;20007;-71
2023/09/03 03:48:47;;;;;;;8.90;5.53;;;18.20;99.90;;;;;;6273860;22;20318;-69
2023/09/03 03:51:34;;;;;;;7.47;5.60;;;18.20;99.90;;;;;;6271512;22;20015;-70
2023/09/03 03:54:19;;;;;;;7.53;5.50;;;18.20;99.90;;;;;;6250182;22;20373;-70
2023/09/03 03:57:05;;;;;;;6.53;4.82;;;18.10;99.90;;;;;;6272281;22;20349;-70
2023/09/03 03:59:52;;;;;;;7.32;5.45;;;18.10;99.90;;;;;;6271178;22;20019;-70
2023/09/03 04:02:38;;;;;;;5.38;4.40;;;18.10;99.90;;;;;;6270860;22;20068;-70
2023/09/03 04:05:23;;;;;;;7.35;5.45;;;18.10;99.90;;;;;;6271475;22;20150;-70
2023/09/03 04:08:09;;;;;;;8.18;5.07;;;18.00;99.90;;;;;;6271494;22;20016;-71
2023/09/03 04:11:18;;;;;;;6.38;4.70;;;18.00;99.90;;;;;;6271433;22;20019;-69
2023/09/03 04:14:04;;;;;;;10.05;5.00;;;18.00;99.90;;;;;;6270643;22;20716;-69
2023/09/03 04:16:50;;;;;;;7.00;4.75;;;17.90;99.90;;;;;;6271218;22;20008;-71
2023/09/03 04:19:36;;;;;;;6.13;4.28;;;17.90;99.90;;;;;;6271473;22;20048;-68
2023/09/03 04:22:22;;;;;;;6.05;4.22;;;17.90;99.90;;;;;;6272300;22;20083;-68
2023/09/03 04:25:08;;;;;;;7.45;4.65;;;17.90;99.90;;;;;;6250591;22;20011;-70
2023/09/03 04:27:54;;;;;;;8.00;4.93;;;17.80;99.90;;;;;;6272220;22;20011;-74
2023/09/03 04:30:40;;;;;;;6.60;4.85;;;17.80;99.90;;;;;;6270644;22;20039;-75
2023/09/03 04:33:27;;;;;;;8.38;4.10;;;17.70;99.90;;;;;;6272743;22;20015;-72
2023/09/03 04:36:13;;;;;;;7.97;4.80;;;17.70;99.90;;;;;;6270424;22;20027;-72
2023/09/03 04:38:58;;;;;;;6.28;4.32;;;17.70;99.90;;;;;;6271697;22;20011;-72
2023/09/03 04:41:45;;;;;;;6.50;4.32;;;17.60;99.90;;;;;;6274284;22;20395;-73
2023/09/03 04:44:31;;;;;;;6.55;3.90;;;17.60;99.90;;;;;;6275761;22;20015;-74
2023/09/03 04:47:17;;;;;;;6.72;3.83;;;17.60;99.90;;;;;;6272648;22;20019;-73
2023/09/03 04:50:03;;;;;;;6.13;4.22;;;17.60;99.90;;;;;;6272114;22;20011;-75
2023/09/03 04:52:49;;;;;;;6.05;3.80;;;17.60;99.90;;;;;;6269414;22;20082;-75
2023/09/03 04:55:35;;;;;;;6.07;3.78;;;17.50;99.90;;;;;;6250928;22;20086;-73
2023/09/03 04:58:21;;;;;;;6.13;4.47;;;17.50;99.90;;;;;;6271227;22;20004;-73
2023/09/03 05:01:14;;;;;;;8.73;4.15;;;17.50;99.90;;;;;;6269835;22;20016;-75
2023/09/03 05:04:03;;;;;;;4.95;3.67;;;17.50;99.90;;;;;;6271094;22;20077;-74
2023/09/03 05:06:49;;;;;;;5.28;3.90;;;17.50;99.90;;;;;;6269829;22;20008;-73
2023/09/03 05:09:35;;;;;;;5.45;4.10;;;17.40;99.90;;;;;;6248615;22;20016;-75
2023/09/03 05:12:21;;;;;;;5.65;3.58;;;17.40;99.90;;;;;;6270738;22;20087;-73
2023/09/03 05:15:13;;;;;;;5.43;3.20;;;17.40;99.90;;;;;;6271207;22;20030;-73
2023/09/03 05:17:59;;;;;;;6.97;4.20;;;17.30;99.90;;;;;;6271688;22;20019;-75
2023/09/03 05:20:45;;;;;;;6.70;4.45;;;17.30;99.90;;;;;;6269847;22;20107;-73
2023/09/03 05:23:31;;;;;;;7.68;4.82;;;17.30;99.90;;;;;;6270681;22;20012;-77
2023/09/03 05:26:17;;;;;;;8.20;4.05;;;17.30;99.90;;;;;;6271308;22;20008;-75
2023/09/03 05:29:02;;;;;;;6.05;3.65;;;17.40;99.90;;;;;;6269460;22;20381;-75
2023/09/03 05:31:48;;;;;;;5.22;4.15;;;17.40;99.90;;;;;;6270799;22;20130;-74
2023/09/03 05:34:34;;;;;;;8.75;4.78;;;17.50;99.90;;;;;;6270652;22;20027;-73
2023/09/03 05:37:20;;;;;;;4.90;3.30;;;17.50;99.90;;;;;;6269008;22;20007;-75
2023/09/03 05:40:07;;;;;;;4.78;3.88;;;17.50;99.90;;;;;;6271121;22;20023;-73
2023/09/03 05:42:52;;;;;;;5.65;3.50;;;17.50;99.90;;;;;;6270547;22;20008;-73
2023/09/03 05:45:46;;;;;;;4.90;2.95;;;17.60;99.90;;;;;;6271121;22;20019;-73
2023/09/03 06:19:02;;;;;;;4.75;3.10;;;17.80;99.90;;;;;;6268485;22;20020;-70
2023/09/03 06:21:48;;;;;;;6.25;3.15;;;17.80;99.90;;;;;;6269367;22;20103;-70
2023/09/03 06:24:34;;;;;;;4.00;3.05;;;17.90;99.90;;;;;;6266665;22;20347;-69
2023/09/03 06:27:20;;;;;;;5.88;3.45;;;17.90;99.90;;;;;;6269010;22;20385;-65
2023/09/03 06:30:06;;;;;;;11.02;3.42;;;18.00;99.90;;;;;;6270290;22;20337;-68
2023/09/03 06:32:52;;;;;;;4.85;3.47;;;18.10;99.90;;;;;;6247835;22;20071;-68
2023/09/03 06:35:38;;;;;;;5.15;3.10;;;18.10;99.90;;;;;;6270701;22;20039;-68
2023/09/03 06:38:24;;;;;;;5.43;2.70;;;18.10;99.90;;;;;;6272481;22;20047;-69
2023/09/03 06:41:10;;;;;;;4.40;2.97;;;18.10;99.90;;;;;;6272220;22;20023;-68
2023/09/03 06:43:56;;;;;;;6.70;3.22;;;18.00;99.90;;;;;;6273297;22;20065;-68
2023/09/03 06:46:42;;;;;;;3.30;2.58;;;18.10;99.90;;;;;;6269517;22;20015;-68
2023/09/03 06:49:28;;;;;;;4.57;2.53;;;18.20;99.90;;;;;;6274147;22;20066;-68
2023/09/03 06:52:14;;;;;;;4.90;3.25;;;18.20;99.90;;;;;;6271468;22;20014;-66
2023/09/03 06:55:01;;;;;;;4.57;3.20;;;18.20;99.90;;;;;;6273042;22;20038;-67
2023/09/03 06:57:47;;;;;;;4.13;2.88;;;18.30;99.90;;;;;;6249263;22;20008;-69
2023/09/03 07:00:34;;;;;;;6.40;2.80;;;18.40;99.90;;;;;;6269749;22;20026;-68
2023/09/03 07:03:20;;;;;;;7.90;3.25;;;18.40;99.90;;;;;;6273593;22;20015;-69
2023/09/03 07:06:06;;;;;;;4.65;2.85;;;18.50;99.90;;;;;;6273987;22;20039;-69
2023/09/03 07:08:53;;;;;;;7.20;2.63;;;18.50;99.90;;;;;;6272935;22;20008;-68
2023/09/03 07:11:39;;;;;;;4.90;3.00;;;18.50;99.90;;;;;;6272625;22;20046;-68
2023/09/03 07:14:25;;;;;;;5.78;2.70;;;18.60;99.90;;;;;;6272054;22;20012;-69
2023/09/03 07:17:11;;;;;;;5.85;2.65;;;18.60;99.90;;;;;;6251284;22;20019;-68
2023/09/03 07:19:57;;;;;;;5.80;2.65;;;18.70;99.90;;;;;;6272931;22;20046;-68
2023/09/03 07:22:43;;;;;;;4.25;2.10;;;18.70;99.90;;;;;;6271620;22;20011;-69
2023/09/03 07:25:30;;;;;;;5.32;2.70;;;18.80;99.80;;;;;;6272116;22;20011;-69
2023/09/03 07:28:16;;;;;;;4.40;2.47;;;18.90;99.50;;;;;;6272981;22;20091;-69
2023/09/03 07:31:02;;;;;;;5.95;2.47;;;18.90;99.40;;;;;;6269731;22;20123;-69
2023/09/03 07:33:48;;;;;;;4.28;2.42;;;18.90;99.20;;;;;;6250680;22;20018;-69
2023/09/03 07:36:34;;;;;;;4.25;2.22;;;19.00;99.00;;;;;;6270354;22;20026;-69
2023/09/03 07:39:20;;;;;;;9.05;3.20;;;19.00;99.10;;;;;;6272003;22;20082;-69
2023/09/03 07:42:06;;;;;;;3.95;2.15;;;18.90;98.90;;;;;;6273018;22;20039;-69
2023/09/03 07:44:53;;;;;;;4.75;2.35;;;18.90;99.00;;;;;;6249046;22;20007;-70
2023/09/03 07:47:38;;;;;;;7.38;2.22;;;18.90;99.00;;;;;;6271220;22;20094;-69
2023/09/03 07:50:27;;;;;;;7.75;2.85;;;19.00;98.80;;;;;;6271491;22;20154;-70
2023/09/03 07:53:13;;;;;;;8.38;2.53;;;19.00;98.60;;;;;;6274334;22;20554;-69
2023/09/03 07:55:59;;;;;;;3.55;2.10;;;19.10;98.60;;;;;;6272944;22;20031;-69
2023/09/03 07:58:45;;;;;;;4.20;1.80;;;19.10;98.50;;;;;;6270711;22;20023;-70
2023/09/03 08:01:31;;;;;;;6.13;2.20;;;19.20;98.40;;;;;;6271526;22;20019;-71
2023/09/03 08:04:17;;;;;;;3.00;1.75;;;19.30;98.20;;;;;;6269826;22;20004;-71
2023/09/03 08:07:03;;;;;;;3.38;1.88;;;19.40;97.80;;;;;;6271936;22;20436;-70
2023/09/03 08:09:49;;;;;;;4.22;2.03;;;19.40;97.60;;;;;;6269745;22;20008;-69
2023/09/03 08:12:35;;;;;;;3.97;2.00;;;19.40;97.40;;;;;;6267175;22;20015;-69
2023/09/03 08:15:21;;;;;;;3.65;2.08;;;19.50;97.50;;;;;;6272001;22;20015;-69
2023/09/03 08:18:07;;;;;;;3.42;1.80;;;19.60;97.30;;;;;;6270816;22;20023;-69
2023/09/03 08:20:53;;;;;;;3.28;1.95;;;19.60;97.20;;;;;;6271729;22;20341;-69
2023/09/03 08:23:40;;;;;;;6.65;2.65;;;19.70;97.00;;;;;;6268594;22;20007;-69
2023/09/03 08:26:26;;;;;;;2.47;1.70;;;19.80;96.80;;;;;;6273145;22;20319;-69
2023/09/03 08:29:13;;;;;;;2.78;1.90;;;19.80;96.70;;;;;;6271623;22;20050;-69
2023/09/03 08:31:58;;;;;;;3.60;1.73;;;19.90;96.70;;;;;;6271267;22;20004;-69
2023/09/03 08:34:44;;;;;;;3.05;2.05;;;20.00;96.60;;;;;;6271021;22;20517;-69
2023/09/03 08:37:30;;;;;;;7.03;2.28;;;20.10;96.60;;;;;;6271615;22;20022;-69
2023/09/03 08:40:18;;;;;;;3.55;2.25;;;20.20;96.40;;;;;;6270264;22;20449;-70
2023/09/03 08:43:08;;;;;;;4.97;2.38;;;20.30;96.20;;;;;;6272691;22;20019;-69
2023/09/03 08:46:09;;;;;;;3.17;1.90;;;20.40;96.10;;;;;;6270764;22;20090;-69
2023/09/03 08:48:55;;;;;;;4.28;2.20;;;20.50;95.90;;;;;;6269696;22;20015;-68
2023/09/03 08:51:42;;;;;;;2.53;1.45;;;20.60;95.70;;;;;;6272341;22;20345;-69
2023/09/03 08:54:29;;;;;;;3.55;1.63;;;20.70;95.60;;;;;;6269849;22;20012;-69
2023/09/03 08:57:15;;;;;;;2.42;1.60;;;20.90;95.20;;;;;;6249163;22;20356;-68
2023/09/03 09:00:05;;;;;;;3.67;1.55;;;20.80;94.90;;;;;;6270942;22;20461;-68
2023/09/03 09:02:52;;;;;;;4.28;1.60;;;20.80;94.60;;;;;;6270528;22;20098;-68
2023/09/03 09:05:41;;;;;;;4.22;1.88;;;20.90;94.60;;;;;;6272255;22;20011;-68
2023/09/03 09:08:28;;;;;;;2.20;1.42;;;20.90;94.60;;;;;;6269668;22;20095;-68
2023/09/03 09:11:18;;;;;;;7.22;2.20;;;21.00;94.40;;;;;;6270253;22;20034;-69
2023/09/03 09:14:08;;;;;;;3.63;1.80;;;21.10;94.40;;;;;;6248039;22;20004;-69
2023/09/03 09:16:54;;;;;;;2.13;1.42;;;21.10;94.40;;;;;;6249103;22;20016;-69
2023/09/03 09:19:40;;;;;;;2.40;1.50;;;21.20;94.20;;;;;;6270552;22;20430;-68
2023/09/03 09:22:26;;;;;;;2.15;1.63;;;21.20;94.10;;;;;;6268003;22;20012;-69
2023/09/03 09:25:25;;;;;;;3.05;1.30;;;21.30;94.00;;;;;;6271670;22;20471;-69
2023/09/03 09:28:13;;;;;;;2.45;1.58;;;21.30;93.90;;;;;;6271668;22;20018;-69
2023/09/03 09:30:59;;;;;;;2.58;1.52;;;21.30;93.70;;;;;;6270506;22;20568;-69
2023/09/03 09:33:51;;;;;;;1.83;1.33;;;21.40;93.70;;;;;;6270861;22;20382;-68
2023/09/03 09:36:37;;;;;;;2.58;1.40;;;21.40;93.70;;;;;;6249811;22;20395;-69
2023/09/03 09:39:23;;;;;;;2.92;1.50;;;21.50;93.70;;;;;;6270222;22;20069;-68
2023/09/03 09:42:12;;;;;;;2.92;1.58;;;21.50;93.50;;;;;;6249463;22;20029;-68
2023/09/03 09:44:59;;;;;;;2.60;1.55;;;21.40;93.10;;;;;;6271112;22;20003;-68
2023/09/03 09:47:49;;;;;;;2.88;1.80;;;21.30;92.80;;;;;;6270704;22;20015;-69
2023/09/03 09:50:44;;;;;;;2.47;1.60;;;21.30;93.10;;;;;;6270986;22;20341;-70
2023/09/03 09:53:30;;;;;;;3.00;1.75;;;21.30;93.10;;;;;;6270587;22;20003;-71
2023/09/03 09:56:18;;;;;;;2.83;1.60;;;21.30;92.80;;;;;;6271305;22;20015;-70
2023/09/03 09:59:09;;;;;;;3.10;1.42;;;21.40;93.00;;;;;;6248728;22;20322;-69
2023/09/03 10:01:55;;;;;;;4.30;1.23;;;21.40;92.90;;;;;;6248487;22;20031;-69
2023/09/03 10:04:43;;;;;;;2.17;1.20;;;21.40;92.80;;;;;;6271095;22;20004;-69
2023/09/03 10:07:30;;;;;;;3.08;1.17;;;21.50;92.60;;;;;;6269987;22;20003;-70
2023/09/03 10:10:16;;;;;;;2.42;1.13;;;21.50;92.10;;;;;;6269780;22;20345;-75
2023/09/03 10:13:02;;;;;;;2.50;1.23;;;21.50;91.90;;;;;;6271314;22;20006;-74
2023/09/03 10:15:49;;;;;;;3.38;1.15;;;21.50;91.70;;;;;;6274633;22;20048;-74
2023/09/03 10:18:43;;;;;;;2.47;1.65;;;21.50;91.70;;;;;;6271707;22;20027;-74
2023/09/03 10:21:32;;;;;;;2.97;1.20;;;21.60;91.20;;;;;;6271614;22;20207;-73
2023/09/03 10:24:20;;;;;;;1.85;1.25;;;21.60;91.20;;;;;;6272736;22;20025;-73
2023/09/03 10:27:12;;;;;;;2.05;1.20;;;21.60;91.00;;;;;;6272648;22;20022;-73
2023/09/03 10:30:03;;;;;;;1.95;1.50;;;21.60;91.10;;;;;;6271692;22;20003;-75
2023/09/03 10:32:52;;;;;;;2.88;1.23;;;21.60;91.00;;;;;;6271683;22;20015;-73
2023/09/03 10:35:38;;;;;;;2.97;1.40;;;21.70;90.90;;;;;;6273784;22;20022;-72
2023/09/03 10:38:31;;;;;;;3.08;1.52;;;21.70;90.50;;;;;;6272848;22;20345;-75
2023/09/03 10:41:22;;;;;;;3.47;1.25;;;21.70;90.30;;;;;;6272088;22;20024;-73
2023/09/03 10:44:15;;;;;;;2.38;1.48;;;21.70;90.10;;;;;;6271929;22;20039;-73
2023/09/03 10:47:01;;;;;;;3.70;1.77;;;21.60;90.00;;;;;;6273110;22;20007;-74
2023/09/03 10:49:49;;;;;;;2.53;1.23;;;21.60;90.10;;;;;;6271587;22;20100;-73
2023/09/03 10:52:40;;;;;;;1.73;1.23;;;21.60;90.10;;;;;;6272889;22;20008;-74
2023/09/03 10:55:26;;;;;;;3.17;1.52;;;21.60;90.20;;;;;;6272719;22;20011;-74
2023/09/03 10:58:16;;;;;;;2.25;1.33;;;21.50;90.10;;;;;;6273474;22;20453;-75
2023/09/03 11:01:31;;;;;;;2.75;1.40;;;21.70;90.10;;;;;;6251313;22;20027;-74
2023/09/03 11:04:17;;;;;;;2.80;1.73;;;21.70;90.00;;;;;;6271476;22;20315;-74
2023/09/03 11:07:23;;;;;;;2.28;1.38;;;21.80;90.00;;;;;;6251352;22;20349;-74
2023/09/03 11:10:21;;;;;;;3.22;1.40;;;21.90;90.00;;;;;;6272559;22;20016;-74
2023/09/03 11:13:09;;;;;;;1.73;1.10;;;22.00;89.70;;;;;;6271932;22;20349;-74
2023/09/03 11:15:55;;;;;;;2.75;1.40;;;22.10;89.20;;;;;;6250630;22;20102;-74
2023/09/03 11:18:48;;;;;;;2.20;1.50;;;22.20;89.20;;;;;;6272217;22;20449;-75
2023/09/03 11:21:38;;;;;;;1.55;1.13;;;22.30;89.10;;;;;;6271955;22;20162;-72
2023/09/03 11:24:23;;;;;;;2.70;1.70;;;22.40;88.60;;;;;;6271400;22;20464;-74
2023/09/03 11:27:09;;;;;;;1.75;1.30;;;22.40;87.90;;;;;;6271392;22;20027;-72
2023/09/03 11:30:05;;;;;;;2.20;1.30;;;22.50;86.80;;;;;;6271584;22;20019;-73
2023/09/03 11:32:51;;;;;;;2.63;1.10;;;22.50;87.30;;;;;;6271077;22;20015;-76
2023/09/03 11:35:43;;;;;;;1.35;1.02;;;22.50;86.60;;;;;;6272344;22;20011;-73
2023/09/03 11:38:32;;;;;;;2.47;1.40;;;22.60;86.20;;;;;;6270412;22;20007;-73
2023/09/03 11:41:18;;;;;;;2.88;1.40;;;22.60;86.10;;;;;;6270943;22;20100;-74
2023/09/03 11:44:04;;;;;;;1.63;1.20;;;22.50;85.20;;;;;;6271729;22;20061;-74
2023/09/03 11:47:03;;;;;;;2.70;1.73;;;22.60;86.20;;;;;;6272238;22;20016;-80
2023/09/03 11:49:49;;;;;;;3.03;1.80;;;22.60;85.80;;;;;;6270480;22;20011;-71
2023/09/03 11:52:35;;;;;;;1.48;1.30;;;22.70;84.90;;;;;;6273061;22;20049;-75
2023/09/03 11:55:27;;;;;;;1.65;1.20;;;22.70;84.40;;;;;;6272774;22;20035;-76
2023/09/03 11:58:18;;;;;;;2.90;1.30;;;22.70;84.10;;;;;;6248788;22;20018;-72
2023/09/03 12:01:04;;;;;;;2.60;1.38;;;22.70;83.40;;;;;;6270755;22;20046;-72
2023/09/03 12:03:51;;;;;;;2.17;1.50;;;22.70;84.00;;;;;;6271943;22;20073;-72
2023/09/03 12:06:40;;;;;;;2.28;1.20;;;22.80;83.00;;;;;;6272533;22;20035;-72
2023/09/03 12:09:31;;;;;;;3.00;1.30;;;22.90;83.50;;;;;;6271577;22;20344;-73
2023/09/03 12:12:18;;;;;;;4.70;2.08;;;22.90;83.80;;;;;;6271892;22;20014;-73
2023/09/03 12:15:19;;;;;;;2.58;1.30;;;23.00;83.90;;;;;;6272578;22;20114;-74
2023/09/03 12:18:09;;;;;;;2.28;1.25;;;23.10;83.10;;;;;;6271266;22;20094;-73
2023/09/03 12:20:55;;;;;;;2.97;1.40;;;23.10;83.40;;;;;;6271415;22;20137;-76
2023/09/03 12:23:45;;;;;;;3.53;1.70;;;23.20;82.50;;;;;;6270933;22;20082;-74
2023/09/03 12:26:35;;;;;;;3.58;1.52;;;23.10;82.40;;;;;;6271144;22;20015;-73
2023/09/03 12:29:21;;;;;;;2.25;1.20;;;23.10;82.40;;;;;;6270042;22;20010;-73
2023/09/03 12:32:13;;;;;;;1.55;1.30;;;23.10;83.10;;;;;;6271693;22;20031;-72
2023/09/03 12:34:59;;;;;;;2.05;1.27;;;23.20;82.90;;;;;;6269706;22;20020;-73
2023/09/03 12:37:45;;;;;;;3.92;1.38;;;23.30;82.60;;;;;;6271745;22;20004;-72
2023/09/03 12:40:31;;;;;;;2.97;1.60;;;23.30;82.00;;;;;;6271120;22;20027;-72
2023/09/03 12:43:17;;;;;;;3.20;1.83;;;23.40;81.30;;;;;;6271330;22;20011;-73
2023/09/03 12:46:03;;;;;;;3.35;1.60;;;23.30;80.30;;;;;;6271445;22;20015;-74
2023/09/03 12:48:49;;;;;;;3.47;1.30;;;23.20;80.40;;;;;;6271210;22;20008;-72
2023/09/03 12:51:39;;;;;;;1.02;0.93;;;23.20;80.50;;;;;;6270459;22;20736;-74
2023/09/03 12:54:25;;;;;;;2.85;1.40;;;23.20;80.70;;;;;;6271961;22;20082;-78
2023/09/03 12:57:11;;;;;;;1.77;1.20;;;23.30;81.50;;;;;;6271870;22;20650;-76
2023/09/03 12:59:58;;;;;;;2.20;1.63;;;23.40;81.40;;;;;;6269093;22;20022;-77
2023/09/03 13:02:44;;;;;;;1.55;0.98;;;23.50;81.20;;;;;;6271263;22;20082;-78
2023/09/03 13:05:30;;;;;;;2.45;1.23;;;23.50;80.20;;;;;;6272061;22;20065;-77
2023/09/03 13:08:16;;;;;;;1.90;1.20;;;23.50;79.80;;;;;;6248635;22;20138;-78
2023/09/03 13:11:03;;;;;;;3.13;1.48;;;23.40;79.90;;;;;;6270714;22;20457;-77
2023/09/03 13:13:51;;;;;;;2.58;1.27;;;23.30;79.50;;;;;;6269931;22;20022;-76
2023/09/03 13:16:37;;;;;;;2.40;1.38;;;23.40;79.90;;;;;;6272134;22;20062;-76
2023/09/03 13:19:23;;;;;;;2.60;1.63;;;23.40;79.80;;;;;;6268190;22;20015;-76
2023/09/03 13:22:09;;;;;;;3.20;1.33;;;23.50;79.90;;;;;;6271089;22;20396;-72
2023/09/03 13:24:55;;;;;;;2.65;1.60;;;23.50;79.10;;;;;;6270279;22;20014;-76
2023/09/03 13:27:41;;;;;;;1.85;1.33;;;23.50;78.20;;;;;;6271792;22;20011;-74
2023/09/03 13:30:27;;;;;;;1.92;1.48;;;23.50;78.10;;;;;;6251278;22;20012;-77
2023/09/03 13:33:13;;;;;;;2.08;1.20;;;23.50;78.80;;;;;;6268328;22;20015;-76
2023/09/03 13:36:00;;;;;;;2.65;1.30;;;23.50;78.90;;;;;;6270594;22;20015;-76
2023/09/03 13:38:46;;;;;;;3.45;1.30;;;23.50;78.40;;;;;;6270070;22;20353;-76
2023/09/03 13:41:32;;;;;;;3.35;1.45;;;23.50;78.40;;;;;;6268447;22;20020;-75
2023/09/03 13:44:18;;;;;;;3.00;1.50;;;23.50;78.10;;;;;;6270345;22;20060;-76
2023/09/03 13:47:05;;;;;;;1.67;1.20;;;23.50;78.50;;;;;;6270705;22;20511;-68
2023/09/03 13:49:51;;;;;;;2.92;1.55;;;23.60;78.70;;;;;;6270965;22;20011;-68
2023/09/03 13:52:37;;;;;;;1.10;0.90;;;23.60;78.10;;;;;;6270884;22;20007;-68
2023/09/03 13:55:24;;;;;;;2.78;1.20;;;23.60;78.00;;;;;;6270842;22;20019;-70
2023/09/03 13:58:10;;;;;;;1.73;1.10;;;23.60;77.50;;;;;;6269265;22;20368;-71
2023/09/03 14:00:56;;;;;;;2.40;1.55;;;23.40;77.70;;;;;;6271384;22;20023;-70
2023/09/03 14:03:42;;;;;;;2.25;1.30;;;23.40;78.50;;;;;;6270784;22;20008;-67
2023/09/03 14:06:29;;;;;;;1.67;1.20;;;23.40;78.00;;;;;;6271035;22;20012;-69
2023/09/03 14:09:16;;;;;;;2.50;1.30;;;23.40;77.90;;;;;;6267849;22;20020;-69
2023/09/03 14:12:03;;;;;;;2.58;1.48;;;23.40;77.60;;;;;;6249826;22;20519;-68
2023/09/03 14:14:49;;;;;;;1.45;1.10;;;23.40;78.40;;;;;;6270164;22;20007;-68
2023/09/03 14:17:35;;;;;;;5.13;1.48;;;23.30;77.90;;;;;;6270297;22;20031;-69
2023/09/03 14:20:20;;;;;;;2.75;1.35;;;23.30;78.30;;;;;;6271420;22;20030;-68
2023/09/03 14:23:06;;;;;;;1.85;1.20;;;23.40;78.00;;;;;;6270239;22;20095;-69
2023/09/03 14:25:52;;;;;;;2.60;1.38;;;23.40;77.80;;;;;;6270841;22;20012;-69
2023/09/03 14:28:38;;;;;;;1.80;1.10;;;23.40;77.60;;;;;;6270552;22;20334;-69
2023/09/03 14:31:24;;;;;;;2.97;1.55;;;23.40;77.80;;;;;;6250101;22;20038;-69
2023/09/03 14:34:10;;;;;;;1.83;1.23;;;23.30;77.70;;;;;;6270422;22;20182;-68
2023/09/03 14:36:56;;;;;;;1.15;0.88;;;23.30;78.00;;;;;;6270396;22;20038;-68
2023/09/03 14:39:42;;;;;;;2.42;1.38;;;23.30;77.70;;;;;;6247286;22;20089;-69
2023/09/03 14:42:28;;;;;;;2.83;1.65;;;23.10;77.70;;;;;;6269458;22;20000;-68
2023/09/03 14:45:14;;;;;;;3.78;1.70;;;23.10;77.60;;;;;;6270645;22;20039;-67
2023/09/03 14:48:00;;;;;;;1.90;1.25;;;23.10;77.10;;;;;;6271320;22;20087;-68
2023/09/03 14:50:46;;;;;;;2.85;1.40;;;23.00;77.30;;;;;;6267552;22;20012;-68
2023/09/03 14:53:32;;;;;;;4.95;1.85;;;23.00;77.10;;;;;;6269201;22;20079;-69
2023/09/03 14:56:20;;;;;;;3.85;1.67;;;23.00;77.30;;;;;;6271520;22;20012;-70
2023/09/03 14:59:06;;;;;;;2.15;1.38;;;23.00;77.70;;;;;;6269840;22;20457;-69
2023/09/03 15:01:51;;;;;;;1.58;0.98;;;23.00;77.10;;;;;;6250692;22;20081;-69